Time;durP1;ratioP1;P1;durP2;ratioP2;P2;SDS_P1;SDS_P2;PMS_P1;PMS_P2;Temp;Humidity;BMP_temperature;BMP_pressure;BME280_temperature;BME280_humidity;BME280_pressure;Samples;Min_cycle;Max_cycle;Signal;HPM_P1;HPM_P2
2021/04/21 00:33:08;;;;;;;12.82;9.50;;;10.40;91.70;;;;;;5932222;24;20020;-94
2021/04/21 00:50:13;;;;;;;;;;;;;;;;;;;;;
2021/04/21 01:23:41;;;;;;;15.68;11.00;;;9.80;92.70;;;;;;6063038;23;20042;-95
2021/04/21 02:11:37;;;;;;;;;;;;;;;;;;;;;
2021/04/21 02:28:13;;;;;;;17.40;12.05;;;9.10;93.20;;;;;;5913418;24;20099;-94
2021/04/21 02:34:57;;;;;;;;;;;;;;;;;;;;;
2021/04/21 02:54:59;;;;;;;15.88;12.05;;;8.80;93.60;;;;;;6055583;23;20011;-94
2021/04/21 06:49:31;;;;;;;;;;;;;;;;;;;;;
2021/04/21 07:16:40;;;;;;;8.15;5.53;;;11.20;81.30;;;;;;5998603;23;20046;-94
2021/04/21 07:29:25;;;;;;;5.88;4.57;;;11.90;79.60;;;;;;5921647;24;20048;-93
2021/04/21 07:42:14;;;;;;;9.18;4.22;;;12.30;72.20;;;;;;5876376;24;20009;-94
2021/04/21 07:52:33;;;;;;;7.43;3.80;;;12.90;69.70;;;;;;5931457;24;20035;-95
2021/04/21 09:07:45;;;;;;;9.90;3.15;;;15.90;61.40;;;;;;5958022;24;20061;-94
2021/04/21 09:10:37;;;;;;;5.40;3.50;;;16.00;59.20;;;;;;6016438;23;20030;-94
2021/04/21 09:20:32;;;;;;;8.68;3.72;;;16.50;58.10;;;;;;6042589;23;20031;-94
2021/04/21 09:30:53;;;;;;;;;;;;;;;;;;;;;
2021/04/21 10:42:05;;;;;;;4.93;3.78;;;18.40;48.00;;;;;;5928623;24;20037;-90
2021/04/21 10:44:32;;;;;;;7.65;3.85;;;18.30;48.80;;;;;;5918790;24;20115;-88
2021/04/21 10:46:58;;;;;;;7.70;3.95;;;18.20;48.10;;;;;;5982446;24;20149;-89
2021/04/21 10:49:42;;;;;;;6.25;3.58;;;18.10;47.50;;;;;;6017903;23;20029;-92
2021/04/21 10:52:14;;;;;;;7.18;3.53;;;18.20;47.90;;;;;;6103159;23;20028;-90
2021/04/21 10:54:41;;;;;;;12.00;4.13;;;18.30;46.40;;;;;;6103223;23;20350;-91
2021/04/21 10:57:22;;;;;;;9.07;3.47;;;18.30;47.90;;;;;;6127909;23;20005;-94
2021/04/21 12:01:25;;;;;;;5.38;3.38;;;19.00;45.60;;;;;;6044598;23;20006;-96
2021/04/21 12:18:27;;;;;;;4.30;2.97;;;19.30;41.40;;;;;;5960962;23;20149;-96
2021/04/21 12:39:22;;;;;;;4.20;2.88;;;19.10;43.10;;;;;;5877318;24;20093;-94
2021/04/21 12:45:51;;;;;;;4.13;2.60;;;19.40;38.80;;;;;;5770746;24;20023;-95
2021/04/21 12:48:28;;;;;;;6.47;3.60;;;19.30;41.90;;;;;;5797329;24;20018;-95
2021/04/21 12:55:02;;;;;;;3.40;2.63;;;19.30;40.90;;;;;;5915682;23;20013;-94
2021/04/21 12:58:07;;;;;;;;;;;;;;;;;;;;;
2021/04/21 13:25:19;;;;;;;;;;;;;;;;;;;;;
2021/04/21 13:34:41;;;;;;;4.88;2.65;;;19.60;40.90;;;;;;5944014;24;20051;-95
2021/04/21 13:40:35;;;;;;;5.03;2.38;;;19.70;40.30;;;;;;6132595;23;20127;-94
2021/04/21 13:46:08;;;;;;;10.38;2.60;;;19.80;40.70;;;;;;6073070;23;20252;-93
2021/04/21 13:48:36;;;;;;;3.83;2.08;;;20.00;39.20;;;;;;6116397;23;20002;-92
2021/04/21 13:51:04;;;;;;;4.30;2.78;;;20.10;38.10;;;;;;6106291;23;20002;-90
2021/04/21 13:53:30;;;;;;;7.30;2.47;;;20.20;38.40;;;;;;6106315;23;20006;-91
2021/04/21 13:55:56;;;;;;;5.68;2.60;;;20.30;40.40;;;;;;6105071;23;20010;-88
2021/04/21 13:58:32;;;;;;;4.13;2.22;;;20.20;37.60;;;;;;6105095;23;20005;-89
2021/04/21 14:00:57;;;;;;;4.38;2.63;;;20.10;38.20;;;;;;6105929;23;20375;-90
2021/04/21 14:03:23;;;;;;;3.58;2.33;;;20.10;37.10;;;;;;6131061;23;20085;-92
2021/04/21 14:05:48;;;;;;;4.95;2.05;;;20.20;38.20;;;;;;6129882;23;20118;-89
2021/04/21 14:08:14;;;;;;;5.78;2.72;;;20.20;36.20;;;;;;6128189;23;20020;-88
2021/04/21 14:11:25;;;;;;;3.75;2.13;;;20.10;38.20;;;;;;6105190;23;20085;-93
2021/04/21 14:14:06;;;;;;;6.15;2.42;;;20.20;36.30;;;;;;6108413;23;20032;-96
2021/04/21 14:16:38;;;;;;;4.35;2.47;;;20.30;36.50;;;;;;6106530;23;20006;-93
2021/04/21 14:19:23;;;;;;;3.05;2.28;;;20.30;36.60;;;;;;6107401;23;20002;-95
2021/04/21 14:21:49;;;;;;;4.03;2.65;;;20.20;36.50;;;;;;6106690;23;20017;-88
2021/04/21 14:24:38;;;;;;;3.95;2.83;;;20.20;37.60;;;;;;6107486;23;20073;-94
2021/04/21 14:27:04;;;;;;;3.70;2.40;;;20.10;36.90;;;;;;6106404;23;20016;-92
2021/04/21 14:29:32;;;;;;;4.57;2.97;;;20.10;36.80;;;;;;6106696;23;20014;-92
2021/04/21 14:32:11;;;;;;;3.72;2.50;;;20.10;35.70;;;;;;6107563;23;20064;-94
2021/04/21 14:35:17;;;;;;;6.80;2.78;;;20.10;37.10;;;;;;6108163;23;20020;-96
2021/04/21 14:38:06;;;;;;;5.63;2.90;;;20.00;36.60;;;;;;6100922;23;20010;-94
2021/04/21 14:44:54;;;;;;;7.68;2.97;;;20.00;39.10;;;;;;6054793;23;20011;-93
2021/04/21 14:54:53;;;;;;;3.97;2.90;;;19.80;37.30;;;;;;5988475;24;20089;-94
2021/04/21 15:00:36;;;;;;;8.90;3.13;;;19.80;37.80;;;;;;6051979;23;20311;-93
2021/04/21 15:03:01;;;;;;;5.78;3.33;;;19.80;37.90;;;;;;6049117;23;20014;-92
2021/04/21 15:05:29;;;;;;;7.03;3.13;;;19.90;38.40;;;;;;6048852;23;20011;-92
2021/04/21 15:08:01;;;;;;;5.38;3.83;;;19.90;40.00;;;;;;6093387;23;20017;-95
2021/04/21 15:10:30;;;;;;;7.40;3.05;;;20.00;37.90;;;;;;6107924;23;20009;-93
2021/04/21 15:12:59;;;;;;;6.57;3.05;;;19.90;37.10;;;;;;6108306;23;20009;-94
2021/04/21 15:15:31;;;;;;;7.50;3.13;;;19.80;37.20;;;;;;6108551;23;20318;-94
2021/04/21 15:18:00;;;;;;;5.45;3.58;;;19.60;38.90;;;;;;6107729;23;20030;-92
2021/04/21 15:20:26;;;;;;;5.93;4.03;;;19.60;38.20;;;;;;6108341;23;20401;-91
2021/04/21 15:22:53;;;;;;;10.75;3.78;;;19.50;38.20;;;;;;6107683;23;20080;-89
2021/04/21 15:25:27;;;;;;;10.02;3.10;;;19.40;39.40;;;;;;6108468;23;20009;-92
2021/04/21 15:27:53;;;;;;;3.70;2.97;;;19.40;38.80;;;;;;6108012;23;20009;-91
2021/04/21 15:30:31;;;;;;;6.07;3.40;;;19.40;39.20;;;;;;6108066;23;20005;-92
2021/04/21 15:32:59;;;;;;;4.00;3.35;;;19.40;38.80;;;;;;6108434;23;20006;-93
2021/04/21 15:35:33;;;;;;;4.80;3.60;;;19.20;40.50;;;;;;6108573;23;20298;-91
2021/04/21 15:38:08;;;;;;;6.70;3.80;;;19.10;40.50;;;;;;6107870;23;20013;-90
2021/04/21 15:40:33;;;;;;;4.45;3.20;;;19.10;42.20;;;;;;6107864;23;20022;-91
2021/04/21 15:42:59;;;;;;;6.60;4.35;;;19.10;42.20;;;;;;6106818;23;20006;-92
2021/04/21 15:45:32;;;;;;;8.18;3.90;;;19.20;41.80;;;;;;6107879;23;20013;-92
2021/04/21 15:47:58;;;;;;;4.95;3.95;;;19.20;41.30;;;;;;6107805;23;20093;-92
2021/04/21 15:50:24;;;;;;;5.10;4.07;;;19.20;41.80;;;;;;6108426;23;20006;-92
2021/04/21 15:52:54;;;;;;;6.38;3.47;;;19.20;41.80;;;;;;6107503;23;20373;-93
2021/04/21 15:55:26;;;;;;;6.68;4.13;;;19.20;42.90;;;;;;6108111;23;20231;-93
2021/04/21 15:57:53;;;;;;;6.22;3.95;;;19.30;42.10;;;;;;6107487;23;20073;-92
2021/04/21 16:00:25;;;;;;;8.10;4.05;;;19.30;41.40;;;;;;6108558;23;20014;-91
2021/04/21 16:02:57;;;;;;;5.75;3.72;;;19.30;40.60;;;;;;6108731;23;19997;-92
2021/04/21 16:05:32;;;;;;;6.45;3.65;;;19.40;40.00;;;;;;6107752;23;20006;-91
2021/04/21 16:07:59;;;;;;;6.32;3.88;;;19.40;40.70;;;;;;6108390;23;20009;-91
2021/04/21 16:10:27;;;;;;;4.60;3.30;;;19.40;39.40;;;;;;6107322;23;20010;-91
2021/04/21 16:12:54;;;;;;;3.35;2.95;;;19.40;40.20;;;;;;6107671;23;20014;-92
2021/04/21 16:15:20;;;;;;;11.05;3.60;;;19.40;41.20;;;;;;6107712;23;20029;-92
2021/04/21 16:17:46;;;;;;;5.45;3.17;;;19.40;39.60;;;;;;6106922;23;20021;-93
2021/04/21 16:20:14;;;;;;;6.53;3.83;;;19.40;39.50;;;;;;6108126;23;20005;-92
2021/04/21 16:22:43;;;;;;;5.00;3.45;;;19.30;39.90;;;;;;6107417;23;20006;-92
2021/04/21 16:25:12;;;;;;;5.68;3.63;;;19.20;39.60;;;;;;6108122;23;20065;-92
2021/04/21 16:27:48;;;;;;;9.85;5.22;;;19.10;40.50;;;;;;6107431;23;20005;-91
2021/04/21 16:30:17;;;;;;;6.20;4.15;;;19.10;40.70;;;;;;6133041;23;20009;-88
2021/04/21 16:32:50;;;;;;;7.75;3.95;;;19.00;41.30;;;;;;6096284;23;20289;-91
2021/04/21 16:35:36;;;;;;;5.38;3.80;;;19.00;41.50;;;;;;6079149;23;20014;-93
2021/04/21 16:38:01;;;;;;;5.30;3.35;;;19.00;41.40;;;;;;6132186;23;20068;-92
2021/04/21 16:40:39;;;;;;;12.10;6.03;;;19.00;40.30;;;;;;6132148;23;20006;-93
2021/04/21 16:43:08;;;;;;;5.25;3.30;;;18.90;40.60;;;;;;6132381;23;20234;-92
2021/04/21 16:45:34;;;;;;;5.88;4.05;;;18.80;41.20;;;;;;6132658;23;20251;-91
2021/04/21 16:47:59;;;;;;;5.63;3.88;;;18.80;41.60;;;;;;6134410;23;20013;-91
2021/04/21 16:50:28;;;;;;;9.32;6.18;;;18.70;41.90;;;;;;6132006;23;20407;-91
2021/04/21 16:52:56;;;;;;;5.82;4.38;;;18.60;42.20;;;;;;6131582;23;20290;-92
2021/04/21 16:55:24;;;;;;;5.50;3.58;;;18.60;42.00;;;;;;6131710;23;20222;-91
2021/04/21 16:57:50;;;;;;;4.07;3.20;;;18.60;41.70;;;;;;6106592;23;20014;-93
2021/04/21 17:00:24;;;;;;;5.53;3.75;;;18.50;42.50;;;;;;6130692;23;20480;-93
2021/04/21 17:02:51;;;;;;;6.95;3.28;;;18.40;42.90;;;;;;6132231;23;20006;-93
2021/04/21 17:05:19;;;;;;;6.80;3.63;;;18.30;43.10;;;;;;6131541;23;20036;-92
2021/04/21 17:07:59;;;;;;;5.57;3.97;;;18.20;42.70;;;;;;6131860;23;20065;-92
2021/04/21 17:10:25;;;;;;;9.55;3.67;;;18.00;42.60;;;;;;6131748;23;20093;-92
2021/04/21 17:12:54;;;;;;;3.95;3.47;;;17.90;42.90;;;;;;6107485;23;20079;-93
2021/04/21 17:15:27;;;;;;;10.68;6.82;;;17.80;42.60;;;;;;6132149;23;20016;-93
2021/04/21 17:17:55;;;;;;;5.20;3.60;;;17.70;43.40;;;;;;6106978;23;20350;-94
2021/04/21 17:20:28;;;;;;;4.60;3.20;;;17.50;43.40;;;;;;6132014;23;20349;-94
2021/04/21 17:22:57;;;;;;;8.57;3.55;;;17.50;44.30;;;;;;6131832;23;20005;-93
2021/04/21 17:25:36;;;;;;;6.60;3.47;;;17.40;44.50;;;;;;6131658;23;19998;-93
2021/04/21 17:28:24;;;;;;;6.22;3.70;;;17.40;44.20;;;;;;6131632;23;20080;-93
2021/04/21 17:30:50;;;;;;;4.25;3.80;;;17.30;44.30;;;;;;6131977;23;20076;-92
2021/04/21 17:33:20;;;;;;;4.05;2.67;;;17.20;44.50;;;;;;6131895;23;20081;-93
2021/04/21 17:35:45;;;;;;;7.07;3.75;;;17.10;44.50;;;;;;6131662;23;20088;-91
2021/04/21 17:41:13;;;;;;;4.75;2.97;;;17.00;44.80;;;;;;6132803;23;20020;-90
2021/04/21 17:43:41;;;;;;;4.57;2.58;;;16.90;44.90;;;;;;6131660;23;19998;-92
2021/04/21 17:46:10;;;;;;;5.80;2.70;;;16.80;46.60;;;;;;6132142;23;20033;-92
2021/04/21 17:48:39;;;;;;;6.22;4.05;;;16.70;45.40;;;;;;6131034;23;20534;-92
2021/04/21 17:51:16;;;;;;;4.50;3.80;;;16.70;46.40;;;;;;6132041;23;20072;-91
2021/04/21 17:53:42;;;;;;;8.68;3.45;;;16.60;46.00;;;;;;6131972;23;20287;-92
2021/04/21 17:56:12;;;;;;;6.95;3.13;;;16.50;46.50;;;;;;6131890;23;20002;-92
2021/04/21 17:58:38;;;;;;;6.65;3.92;;;16.50;46.60;;;;;;6130411;23;20017;-93
2021/04/21 18:01:05;;;;;;;6.32;3.78;;;16.40;47.20;;;;;;6133115;23;20003;-93
2021/04/21 18:07:24;;;;;;;5.25;3.30;;;16.20;47.70;;;;;;6079386;23;20005;-93
2021/04/21 18:10:36;;;;;;;5.32;3.45;;;16.20;47.40;;;;;;6131699;23;20006;-96
2021/04/21 18:13:27;;;;;;;11.57;4.03;;;16.20;47.60;;;;;;6048194;23;20003;-93
2021/04/21 18:16:27;;;;;;;6.60;4.00;;;16.20;47.40;;;;;;6049120;23;20010;-92
2021/04/21 18:19:02;;;;;;;9.40;4.22;;;16.10;47.20;;;;;;6039009;23;20427;-93
2021/04/21 18:21:54;;;;;;;5.75;4.20;;;16.00;47.50;;;;;;6048952;23;20006;-95
2021/04/21 18:24:25;;;;;;;7.13;4.05;;;15.90;47.50;;;;;;6049239;23;20077;-91
2021/04/21 18:26:53;;;;;;;5.38;4.03;;;15.90;47.30;;;;;;6065980;23;20014;-93
2021/04/21 18:32:50;;;;;;;12.85;4.28;;;15.80;47.70;;;;;;6118086;23;20079;-93
2021/04/21 18:35:31;;;;;;;5.00;3.70;;;15.70;47.60;;;;;;6132798;23;20002;-94
2021/04/21 18:41:48;;;;;;;5.95;3.85;;;15.60;48.10;;;;;;6133888;23;20013;-95
2021/04/21 18:44:54;;;;;;;8.13;3.90;;;15.50;48.50;;;;;;6132752;23;19998;-93
2021/04/21 18:53:50;;;;;;;11.13;5.28;;;15.30;51.50;;;;;;6135914;23;20041;-91
2021/04/21 18:56:16;;;;;;;13.18;5.70;;;15.20;53.50;;;;;;6132418;23;20017;-91
2021/04/21 18:58:44;;;;;;;10.68;5.22;;;15.00;54.70;;;;;;6129212;23;20097;-91
2021/04/21 19:01:13;;;;;;;7.78;5.28;;;14.90;55.90;;;;;;6129908;23;20361;-90
2021/04/21 19:03:39;;;;;;;9.27;5.15;;;14.70;57.10;;;;;;6130170;23;20329;-91
2021/04/21 19:06:05;;;;;;;9.63;4.80;;;14.70;57.00;;;;;;6130188;23;20006;-90
2021/04/21 19:08:32;;;;;;;8.60;5.43;;;14.70;57.90;;;;;;6104016;23;20013;-89
2021/04/21 19:10:59;;;;;;;12.07;6.22;;;14.60;57.90;;;;;;6128361;23;20006;-87
2021/04/21 19:13:24;;;;;;;12.27;5.60;;;14.60;58.30;;;;;;6130781;23;20006;-90
2021/04/21 19:15:50;;;;;;;12.30;6.10;;;14.70;58.90;;;;;;6129371;23;20025;-91
2021/04/21 19:18:17;;;;;;;12.20;5.43;;;14.70;59.70;;;;;;6126765;23;20122;-87
2021/04/21 19:20:44;;;;;;;10.02;5.47;;;14.60;60.70;;;;;;6130772;23;20065;-90
2021/04/21 19:23:14;;;;;;;12.15;6.05;;;14.50;62.20;;;;;;6153711;23;20013;-89
2021/04/21 19:25:40;;;;;;;10.13;5.80;;;14.50;63.20;;;;;;6129865;23;20005;-88
2021/04/21 19:28:07;;;;;;;10.25;5.53;;;14.30;63.90;;;;;;6129437;23;20021;-90
2021/04/21 19:30:33;;;;;;;10.25;5.45;;;14.20;64.60;;;;;;6129423;23;20006;-90
2021/04/21 19:32:59;;;;;;;9.10;5.63;;;14.10;65.30;;;;;;6130159;23;20100;-90
2021/04/21 19:35:25;;;;;;;9.30;6.10;;;14.00;65.90;;;;;;6132673;23;20010;-89
2021/04/21 19:37:52;;;;;;;10.20;5.35;;;13.90;66.00;;;;;;6105261;23;20014;-89
2021/04/21 19:40:18;;;;;;;14.50;5.45;;;13.80;66.50;;;;;;6130564;23;20025;-90
2021/04/21 19:42:44;;;;;;;9.65;4.90;;;13.80;66.50;;;;;;6129354;23;20010;-88
2021/04/21 19:45:12;;;;;;;9.65;4.68;;;13.70;66.60;;;;;;6129399;23;20084;-87
2021/04/21 19:47:38;;;;;;;9.30;4.90;;;13.70;66.50;;;;;;6128770;23;20032;-88
2021/04/21 19:50:08;;;;;;;10.95;4.78;;;13.60;67.20;;;;;;6129030;23;20010;-88
2021/04/21 19:52:34;;;;;;;5.93;4.55;;;13.60;67.00;;;;;;6129955;23;20014;-87
2021/04/21 19:55:00;;;;;;;9.18;4.32;;;13.50;66.50;;;;;;6128574;23;20021;-88
2021/04/21 19:57:25;;;;;;;11.43;4.47;;;13.40;66.90;;;;;;6128412;23;20009;-87
2021/04/21 19:59:52;;;;;;;9.57;4.78;;;13.30;66.60;;;;;;6153509;23;20005;-88
2021/04/21 20:02:19;;;;;;;9.50;4.95;;;13.30;67.00;;;;;;6129420;23;20005;-89
2021/04/21 20:04:45;;;;;;;6.85;4.57;;;13.30;66.50;;;;;;6129151;23;20017;-89
2021/04/21 20:07:11;;;;;;;8.20;4.28;;;13.20;66.80;;;;;;6129326;23;20002;-90
2021/04/21 20:09:39;;;;;;;6.72;3.60;;;13.20;66.30;;;;;;6130323;23;20006;-90
2021/04/21 20:12:05;;;;;;;6.97;4.57;;;13.10;66.30;;;;;;6129985;23;20086;-89
2021/04/21 20:14:31;;;;;;;5.95;3.85;;;13.10;66.90;;;;;;6128398;23;20005;-89
2021/04/21 20:16:57;;;;;;;8.13;3.72;;;13.10;66.40;;;;;;6129139;23;20006;-89
2021/04/21 20:19:22;;;;;;;5.20;3.78;;;13.10;66.40;;;;;;6129408;23;20081;-87
2021/04/21 20:21:50;;;;;;;4.57;3.40;;;13.00;66.80;;;;;;6129727;23;19998;-89
2021/04/21 20:24:15;;;;;;;6.40;3.60;;;12.90;67.10;;;;;;6131020;23;20028;-88
2021/04/21 20:26:41;;;;;;;5.82;2.60;;;12.90;67.10;;;;;;6129887;23;20006;-89
2021/04/21 20:29:06;;;;;;;5.88;2.40;;;12.90;66.80;;;;;;6129626;23;20018;-89
2021/04/21 20:31:32;;;;;;;6.63;3.70;;;12.80;67.30;;;;;;6131062;23;20045;-88
2021/04/21 20:33:58;;;;;;;6.57;3.00;;;12.70;67.50;;;;;;6129969;23;20009;-88
2021/04/21 20:36:23;;;;;;;10.68;2.88;;;12.70;68.40;;;;;;6128696;23;20454;-89
2021/04/21 20:38:49;;;;;;;6.60;2.65;;;12.60;68.40;;;;;;6129669;23;20010;-89
2021/04/21 20:41:14;;;;;;;9.52;2.55;;;12.50;68.30;;;;;;6130081;23;20219;-89
2021/04/21 20:43:40;;;;;;;5.38;2.30;;;12.40;68.70;;;;;;6154541;23;20369;-90
2021/04/21 20:46:05;;;;;;;10.02;2.22;;;12.30;68.10;;;;;;6129355;23;20009;-89
2021/04/21 20:48:32;;;;;;;9.80;2.78;;;12.20;68.10;;;;;;6129645;23;20017;-87
2021/04/21 20:50:58;;;;;;;4.70;2.40;;;12.10;67.20;;;;;;6130229;23;20010;-89
2021/04/21 20:53:23;;;;;;;7.50;1.80;;;11.90;67.60;;;;;;6129158;23;20093;-88
2021/04/21 20:55:49;;;;;;;4.18;1.80;;;11.90;67.50;;;;;;6128902;23;20093;-89
2021/04/21 20:58:14;;;;;;;6.30;2.22;;;11.80;67.50;;;;;;6130090;23;20246;-88
2021/04/21 21:00:40;;;;;;;6.53;1.50;;;11.70;67.20;;;;;;6129243;23;20017;-87
2021/04/21 21:03:05;;;;;;;2.67;1.40;;;11.70;67.20;;;;;;6130213;23;20009;-88
2021/04/21 21:05:31;;;;;;;5.25;1.60;;;11.70;66.70;;;;;;6129330;23;20291;-89
2021/04/21 21:07:57;;;;;;;4.95;1.80;;;11.50;67.30;;;;;;6154307;23;20002;-90
2021/04/21 21:10:23;;;;;;;8.57;1.70;;;11.50;67.10;;;;;;6129917;23;20002;-89
2021/04/21 21:12:50;;;;;;;8.20;3.13;;;11.50;67.50;;;;;;6131581;23;20084;-89
2021/04/21 21:15:17;;;;;;;6.72;1.98;;;11.50;67.60;;;;;;6129406;23;20016;-88
2021/04/21 21:17:43;;;;;;;11.68;1.50;;;11.50;66.80;;;;;;6128805;23;20021;-88
2021/04/21 21:20:10;;;;;;;2.03;1.33;;;11.40;64.40;;;;;;6129305;23;20015;-90
2021/04/21 21:22:36;;;;;;;9.15;1.52;;;11.30;63.90;;;;;;6129353;23;20033;-89
2021/04/21 21:25:04;;;;;;;3.33;1.33;;;11.30;63.50;;;;;;6128665;23;20343;-90
2021/04/21 21:27:29;;;;;;;4.97;1.13;;;11.20;62.00;;;;;;6129398;23;20005;-89
2021/04/21 21:29:55;;;;;;;5.10;1.13;;;11.10;61.00;;;;;;6129029;23;20084;-89
2021/04/21 21:32:21;;;;;;;3.38;1.25;;;11.00;61.10;;;;;;6129030;23;20045;-89
2021/04/21 21:34:46;;;;;;;3.10;0.93;;;10.90;60.70;;;;;;6128584;23;20010;-88
2021/04/21 21:37:13;;;;;;;5.25;1.52;;;10.80;59.90;;;;;;6128673;23;20009;-89
2021/04/21 21:39:39;;;;;;;5.68;1.95;;;10.70;59.70;;;;;;6153489;23;20002;-87
2021/04/21 21:42:05;;;;;;;5.65;1.60;;;10.60;59.40;;;;;;6128854;23;20282;-88
2021/04/21 21:44:31;;;;;;;3.50;0.88;;;10.60;59.40;;;;;;6128631;23;20001;-88
2021/04/21 21:46:57;;;;;;;4.35;1.23;;;10.60;59.50;;;;;;6129835;23;20072;-88
2021/04/21 21:49:23;;;;;;;4.68;1.10;;;10.40;58.90;;;;;;6129475;23;20013;-88
2021/04/21 21:51:49;;;;;;;2.92;1.15;;;10.40;59.70;;;;;;6129726;23;20005;-89
2021/04/21 21:54:14;;;;;;;5.03;0.75;;;10.40;59.20;;;;;;6128345;23;20045;-87
2021/04/21 21:56:39;;;;;;;9.52;1.48;;;10.30;58.90;;;;;;6128271;23;20005;-88
2021/04/21 21:59:05;;;;;;;5.32;1.30;;;10.20;59.20;;;;;;6129084;23;20241;-88
2021/04/21 22:01:31;;;;;;;5.38;0.90;;;10.20;59.10;;;;;;6132022;23;20010;-89
2021/04/21 22:03:56;;;;;;;4.38;1.05;;;10.10;58.70;;;;;;6153557;23;20080;-88
2021/04/21 22:06:22;;;;;;;3.58;1.08;;;10.00;59.10;;;;;;6129589;23;20090;-88
2021/04/21 22:08:48;;;;;;;3.97;1.13;;;9.80;59.70;;;;;;6128170;23;20009;-89
2021/04/21 22:11:15;;;;;;;3.75;1.10;;;9.70;60.10;;;;;;6128226;23;20009;-89
2021/04/21 22:13:41;;;;;;;4.32;1.00;;;9.70;60.60;;;;;;6129481;23;20289;-88
2021/04/21 22:16:07;;;;;;;4.43;0.90;;;9.60;60.50;;;;;;6128765;23;20001;-88
2021/04/21 22:18:32;;;;;;;2.72;1.10;;;9.60;61.20;;;;;;6128852;23;20006;-88
2021/04/21 22:20:58;;;;;;;4.57;1.10;;;9.60;62.00;;;;;;6128685;23;20353;-88
2021/04/21 22:23:24;;;;;;;7.05;1.10;;;9.40;61.90;;;;;;6129035;23;20006;-88
2021/04/21 22:25:50;;;;;;;8.85;1.40;;;9.30;62.20;;;;;;6128439;23;20013;-88
2021/04/21 22:28:16;;;;;;;6.03;0.90;;;9.30;62.60;;;;;;6127975;23;20475;-88
2021/04/21 22:30:44;;;;;;;11.52;1.25;;;9.30;61.70;;;;;;6128948;23;20365;-89
2021/04/21 22:33:10;;;;;;;6.75;0.93;;;9.30;61.70;;;;;;6129190;23;20068;-88
2021/04/21 22:35:37;;;;;;;4.40;1.20;;;9.10;61.70;;;;;;6128259;23;20040;-88
2021/04/21 22:38:04;;;;;;;3.63;0.90;;;9.00;62.50;;;;;;6129429;23;20006;-89
2021/04/21 22:40:29;;;;;;;5.70;1.25;;;8.90;62.10;;;;;;6128421;23;20378;-88
2021/04/21 22:42:55;;;;;;;4.18;0.80;;;8.90;62.40;;;;;;6129676;23;20037;-88
2021/04/21 22:45:23;;;;;;;9.98;1.02;;;8.90;62.70;;;;;;6129578;23;20010;-88
2021/04/21 22:47:49;;;;;;;3.28;1.25;;;8.80;63.50;;;;;;6151404;23;20010;-88
2021/04/21 22:50:21;;;;;;;4.53;0.95;;;8.80;63.50;;;;;;6154682;23;20274;-88
2021/04/21 22:52:47;;;;;;;5.45;0.95;;;8.80;64.30;;;;;;6129626;23;20077;-88
2021/04/21 22:55:17;;;;;;;4.13;1.17;;;8.80;63.20;;;;;;6130508;23;20005;-89
2021/04/21 22:57:43;;;;;;;5.72;1.13;;;8.70;63.30;;;;;;6130854;23;20072;-89
2021/04/21 23:00:10;;;;;;;7.88;1.20;;;8.60;63.70;;;;;;6129865;23;20006;-88
2021/04/21 23:02:35;;;;;;;3.05;1.05;;;8.50;63.70;;;;;;6130329;23;20053;-89
2021/04/21 23:05:01;;;;;;;4.72;0.80;;;8.30;63.30;;;;;;6130681;23;20196;-88
2021/04/21 23:07:27;;;;;;;2.92;0.80;;;8.20;64.50;;;;;;6129336;23;20010;-89
2021/04/21 23:09:52;;;;;;;4.72;1.38;;;8.10;64.20;;;;;;6129931;23;20116;-88
2021/04/21 23:12:18;;;;;;;7.28;1.13;;;8.00;64.50;;;;;;6130267;23;20006;-88
2021/04/21 23:14:43;;;;;;;5.53;2.10;;;7.90;64.40;;;;;;6129728;23;20092;-88
2021/04/21 23:17:09;;;;;;;2.55;0.90;;;7.80;65.40;;;;;;6155289;23;20038;-89
2021/04/21 23:19:34;;;;;;;3.97;1.33;;;7.80;65.70;;;;;;6154573;23;20058;-87
2021/04/21 23:22:00;;;;;;;3.50;1.25;;;7.70;65.30;;;;;;6130364;23;20010;-88
2021/04/21 23:24:25;;;;;;;8.38;1.52;;;7.70;65.80;;;;;;6129338;23;20238;-87
2021/04/21 23:26:51;;;;;;;2.40;0.90;;;7.70;66.30;;;;;;6129561;23;20113;-88
2021/04/21 23:29:16;;;;;;;5.47;1.00;;;7.70;66.00;;;;;;6154460;23;20017;-88
2021/04/21 23:31:41;;;;;;;3.38;0.90;;;7.70;66.10;;;;;;6129549;23;20013;-88
2021/04/21 23:34:07;;;;;;;3.20;1.10;;;7.60;66.20;;;;;;6130143;23;20539;-88
2021/04/21 23:36:33;;;;;;;3.50;1.00;;;7.60;66.20;;;;;;6130036;23;20006;-88
2021/04/21 23:38:58;;;;;;;5.78;1.45;;;7.60;67.00;;;;;;6132044;23;20014;-87
2021/04/21 23:41:24;;;;;;;4.45;0.93;;;7.50;66.40;;;;;;6130049;23;20289;-89
2021/04/21 23:43:49;;;;;;;6.35;1.70;;;7.50;66.60;;;;;;6129454;23;20010;-89
2021/04/21 23:46:14;;;;;;;6.35;1.08;;;7.50;66.40;;;;;;6130152;23;20072;-88
2021/04/21 23:48:40;;;;;;;8.98;1.65;;;7.50;66.90;;;;;;6130043;23;20009;-89
2021/04/21 23:51:06;;;;;;;11.18;1.55;;;7.40;66.60;;;;;;6130056;23;20009;-88
2021/04/21 23:53:31;;;;;;;7.40;1.42;;;7.40;67.20;;;;;;6130215;23;20216;-90
2021/04/21 23:55:57;;;;;;;3.28;1.20;;;7.40;66.60;;;;;;6131019;23;20017;-88
2021/04/21 23:58:22;;;;;;;13.38;2.45;;;7.30;66.80;;;;;;6129176;23;20034;-89
